Cottonwood, AZ (86326)

10:19 PM MST on August 01, 2015 (GMT -0700)
Verde Village Unit # 6 | | Change Station
CLOSE
Current Station
Personal Weather Station
Location: Cottonwood, AZ
Elevation: 3485 ft
Nearby Weather Stations

Elev 3485 ft 34.70 °N, 112.01 °W | Updated 1 second ago

Clear
Clear
80.5 °F
Feels Like 81 °F
N
0.0
Wind Variable Wind from SE
Gusts 0.0 mph

Today
High -- | Low -- °F
--% Chance of Precip.
Yesterday
High -- | Low -- °F
Precip. -- in
5:37 AM 7:30 PM
Waning Gibbous, 96% visible
Pressure 30.10 in
Visibility 10.0 miles
Clouds Clear
Heat Index 81 °F
Dew Point 58 °F
Humidity 47%
Rainfall in
Snow Depth Not available.
UV 0 out of 12
Pollen 4.10 out of 12
Air Quality Not available.
Flu Activity Not available.
METAR KSEZ 020455Z AUTO 05007KT 10SM CLR 25/11 A3010 RMK AO2

More Conditions Fewer Conditions

Pressure 30.10 in
Visibility 10.0 miles
Clouds Clear
Heat Index 81 °F
Dew Point 58 °F
Humidity 47%
Rainfall in
Snow Depth Not available.
UV 0 out of 12
Pollen 4.10 out of 12
Air Quality Not available.
Flu Activity Not available.
METAR KSEZ 020455Z AUTO 05007KT 10SM CLR 25/11 A3010 RMK AO2

More Conditions Fewer Conditions

10-Day Weather Forecast

×

Almanac

Astronomy

Aug. 01, 2015 Rise Set
Actual Time
Civil Twilight
Nautical Twilight
Astronomical Twilight
Moon
Length of Visible Light
Length of Day
Tomorrow will be .
, % of the Moon is Illuminated

Today's Extremes

State Highs State Lows

Community

WunderPhotos

Upload Photos

1,843,190 photos uploaded!

WunderBlogs® & News

Nearby

Air Quality

  Air Quality AQ Index Pollutant
Not available.

Snow Depth

Station Depth Elevation

Earthquake Activity

City Distance Mag. Time & Date
Minimum magnitude displayed is 2.5.

Coastal Water Temperatures

Place Temperature

Stations

Nearby Weather Stations

Station Location Temp. Windchill Dew Point Humidity Wind Precip. Elev Updated Type